Time;durP1;ratioP1;P1;durP2;ratioP2;P2;SDS_P1;SDS_P2;PMS_P1;PMS_P2;Temp;Humidity;BMP_temperature;BMP_pressure;BME280_temperature;BME280_humidity;BME280_pressure;Samples;Min_cycle;Max_cycle;Signal;HPM_P1;HPM_P2
2022/02/01 00:03:25;;;;;;;4.75;2.92;;;3.30;99.90;;;;;;5109615;28;20052;-64
2022/02/01 00:06:01;;;;;;;4.85;2.58;;;3.30;99.90;;;;;;5076933;28;20050;-64
2022/02/01 00:08:41;;;;;;;6.40;2.53;;;3.30;99.90;;;;;;5094142;28;20051;-68
2022/02/01 00:11:25;;;;;;;4.07;2.25;;;3.40;99.90;;;;;;5093046;28;20057;-66
2022/02/01 00:37:58;;;;;;;2.05;1.30;;;2.70;99.90;;;;;;5077035;28;20075;-67
2022/02/01 00:40:26;;;;;;;1.92;1.10;;;2.70;99.90;;;;;;5106916;28;20047;-66
2022/02/01 00:42:54;;;;;;;1.60;0.88;;;2.60;99.90;;;;;;5106243;28;20047;-68
2022/02/01 00:45:21;;;;;;;1.70;0.90;;;2.60;99.90;;;;;;5111076;28;20047;-68
2022/02/01 00:47:49;;;;;;;1.58;0.75;;;2.50;99.90;;;;;;5111433;28;20040;-66
2022/02/01 00:50:17;;;;;;;2.33;1.20;;;2.50;99.90;;;;;;5084299;28;20051;-67
2022/02/01 00:52:45;;;;;;;2.08;1.00;;;2.40;99.90;;;;;;5092031;28;20039;-67
2022/02/01 00:55:12;;;;;;;1.05;0.80;;;2.40;99.90;;;;;;5095596;28;20074;-67
2022/02/01 00:57:40;;;;;;;2.40;1.00;;;2.50;99.90;;;;;;5100265;28;20036;-66
2022/02/01 01:00:11;;;;;;;3.20;1.15;;;2.50;99.90;;;;;;5111737;28;20506;-68
2022/02/01 01:02:38;;;;;;;1.88;1.00;;;2.40;99.90;;;;;;5093820;28;20261;-69
2022/02/01 01:05:07;;;;;;;1.45;0.80;;;2.40;99.90;;;;;;5112486;28;20525;-68
2022/02/01 01:07:35;;;;;;;1.40;0.95;;;2.40;99.90;;;;;;5097511;28;20055;-67
2022/02/01 01:10:05;;;;;;;2.67;1.23;;;2.30;99.90;;;;;;5093894;28;20395;-68
2022/02/01 01:12:33;;;;;;;2.28;1.10;;;2.30;99.90;;;;;;5111519;28;20044;-68
2022/02/01 01:15:16;;;;;;;2.08;1.17;;;2.40;99.90;;;;;;5111089;28;20039;-68
2022/02/01 01:45:03;;;;;;;5.07;2.95;;;2.60;99.90;;;;;;5111010;28;20043;-67
2022/02/01 01:53:20;;;;;;;6.50;3.50;;;2.50;99.90;;;;;;5090862;28;20036;-67
2022/02/01 01:55:52;;;;;;;5.57;3.20;;;2.50;99.90;;;;;;5095584;28;20134;-66
2022/02/01 01:58:21;;;;;;;7.25;3.17;;;2.50;99.90;;;;;;5085906;28;20551;-66
2022/02/01 02:03:17;;;;;;;5.50;3.05;;;2.40;99.90;;;;;;5110057;28;20047;-64
2022/02/01 02:05:45;;;;;;;6.43;3.03;;;2.40;99.90;;;;;;5091142;28;20047;-67
2022/02/01 02:08:13;;;;;;;4.88;2.90;;;2.40;99.90;;;;;;5109653;28;20039;-66
2022/02/01 02:11:01;;;;;;;6.15;3.70;;;2.30;99.90;;;;;;5102626;28;20032;-67
2022/02/01 02:16:00;;;;;;;6.68;3.60;;;2.20;99.90;;;;;;5090227;28;20142;-65
2022/02/01 02:18:33;;;;;;;7.60;3.58;;;2.20;99.90;;;;;;5108891;28;20046;-65
2022/02/01 02:21:01;;;;;;;8.13;3.75;;;2.10;99.90;;;;;;5107958;28;20070;-67
2022/02/01 02:23:30;;;;;;;7.22;3.88;;;2.00;99.90;;;;;;5109696;28;20063;-68
2022/02/01 02:25:57;;;;;;;7.50;3.90;;;2.00;99.90;;;;;;5108561;28;20044;-67
2022/02/01 02:28:25;;;;;;;6.40;3.17;;;1.90;99.90;;;;;;5086727;28;20044;-63
2022/02/01 02:30:52;;;;;;;5.88;3.53;;;1.90;99.90;;;;;;5088595;28;20277;-65
2022/02/01 02:33:21;;;;;;;6.88;4.18;;;1.90;99.90;;;;;;5090134;28;20055;-69
2022/02/01 02:35:58;;;;;;;7.70;4.05;;;2.00;99.90;;;;;;5089208;28;20043;-65
2022/02/01 02:38:32;;;;;;;7.78;4.03;;;1.90;99.90;;;;;;5108980;28;20066;-65
2022/02/01 02:46:50;;;;;;;;;;;2.00;99.90;;;;;;5029606;28;20554;-65
2022/02/01 02:49:20;;;;;;;7.65;4.05;;;2.00;99.90;;;;;;5028441;28;19924;-66
2022/02/01 02:51:48;;;;;;;7.20;4.15;;;2.00;99.90;;;;;;5026259;28;20056;-66
2022/02/01 02:54:17;;;;;;;6.90;3.97;;;2.10;99.90;;;;;;5009142;28;20049;-65
2022/02/01 02:57:04;;;;;;;7.05;4.03;;;2.10;99.90;;;;;;5043547;28;20456;-66
2022/02/01 02:59:33;;;;;;;7.07;4.30;;;2.10;99.90;;;;;;5029326;28;20172;-66
2022/02/01 03:02:01;;;;;;;8.15;4.28;;;2.10;99.90;;;;;;5038958;28;20080;-68
2022/02/01 03:04:31;;;;;;;6.90;3.95;;;2.20;99.90;;;;;;5045435;28;20135;-68
2022/02/01 03:06:59;;;;;;;7.15;3.88;;;2.10;99.90;;;;;;5029019;28;20045;-67
2022/02/01 03:09:27;;;;;;;7.90;4.30;;;2.10;99.90;;;;;;5044077;28;20114;-65
2022/02/01 03:12:02;;;;;;;8.13;4.60;;;2.00;99.90;;;;;;5026251;28;20151;-68
2022/02/01 03:14:52;;;;;;;8.93;4.18;;;2.00;99.90;;;;;;5044561;28;20726;-67
2022/02/01 03:19:58;;;;;;;8.05;4.60;;;2.10;99.90;;;;;;5061443;28;20048;-67
2022/02/01 03:22:28;;;;;;;7.68;4.18;;;2.10;99.90;;;;;;5102501;28;20048;-67
2022/02/01 03:24:58;;;;;;;9.55;5.00;;;2.10;99.90;;;;;;5108272;28;20047;-68
2022/02/01 03:27:25;;;;;;;9.35;4.60;;;2.00;99.90;;;;;;5108501;28;20051;-64
2022/02/01 03:29:53;;;;;;;10.30;5.35;;;2.00;99.90;;;;;;5089808;28;20036;-68
2022/02/01 03:32:20;;;;;;;9.68;5.10;;;2.00;99.90;;;;;;5106880;28;20204;-67
2022/02/01 03:34:51;;;;;;;10.57;5.68;;;1.90;99.90;;;;;;5108307;28;20055;-67
2022/02/01 03:37:18;;;;;;;12.43;6.18;;;1.90;99.90;;;;;;5072406;28;20040;-67
2022/02/01 03:39:45;;;;;;;14.88;6.53;;;1.90;99.90;;;;;;5107093;28;20463;-68
2022/02/01 03:42:13;;;;;;;12.52;6.50;;;1.80;99.90;;;;;;5086832;28;20052;-66
2022/02/01 03:44:41;;;;;;;12.35;6.45;;;1.80;99.90;;;;;;5107135;28;20063;-68
2022/02/01 03:47:08;;;;;;;13.65;6.65;;;1.80;99.90;;;;;;5099862;28;20576;-67
2022/02/01 03:49:39;;;;;;;12.77;6.20;;;1.70;99.90;;;;;;5103632;28;20086;-67
2022/02/01 03:52:08;;;;;;;14.68;6.55;;;1.70;99.90;;;;;;5100263;28;20508;-67
2022/02/01 03:54:37;;;;;;;13.63;7.00;;;1.70;99.90;;;;;;5103719;28;20070;-66
2022/02/01 03:57:07;;;;;;;15.13;6.55;;;1.80;99.90;;;;;;5091512;28;20489;-67
2022/02/01 03:59:35;;;;;;;14.13;6.78;;;1.80;99.90;;;;;;5075854;28;20584;-68
2022/02/01 04:02:03;;;;;;;12.25;6.18;;;1.80;99.90;;;;;;5103388;28;20047;-68
2022/02/01 04:04:33;;;;;;;14.77;6.82;;;1.70;99.90;;;;;;5107677;28;20039;-66
2022/02/01 04:07:01;;;;;;;13.75;7.75;;;1.70;99.90;;;;;;5105701;28;20459;-65
2022/02/01 04:09:29;;;;;;;11.68;6.18;;;1.70;99.90;;;;;;5093737;28;20047;-67
2022/02/01 04:11:59;;;;;;;13.90;7.20;;;1.70;99.90;;;;;;5099872;28;20039;-67
2022/02/01 04:14:30;;;;;;;15.27;7.80;;;1.70;99.90;;;;;;5094959;28;20126;-67
2022/02/01 04:17:01;;;;;;;17.17;7.90;;;1.80;99.90;;;;;;5106599;28;20134;-67
2022/02/01 04:19:30;;;;;;;17.60;8.50;;;1.70;99.90;;;;;;5088668;28;20040;-66
2022/02/01 04:24:26;;;;;;;17.77;8.93;;;1.80;99.90;;;;;;5102574;28;20188;-67
2022/02/01 04:26:53;;;;;;;18.60;9.13;;;1.70;99.90;;;;;;5078733;28;20120;-66
2022/02/01 04:29:20;;;;;;;19.45;9.32;;;1.70;99.90;;;;;;5088327;28;20054;-64
2022/02/01 04:31:47;;;;;;;22.27;9.68;;;1.70;99.90;;;;;;5105869;28;20498;-66
2022/02/01 04:34:15;;;;;;;23.40;10.13;;;1.80;99.90;;;;;;5088200;28;20058;-66
2022/02/01 04:36:48;;;;;;;20.67;10.35;;;1.80;99.90;;;;;;5103374;28;20039;-65
2022/02/01 04:39:15;;;;;;;18.55;9.48;;;1.80;99.90;;;;;;5067157;28;20325;-67
2022/02/01 04:41:42;;;;;;;19.83;10.10;;;1.80;99.90;;;;;;5104726;28;20036;-67
2022/02/01 04:44:10;;;;;;;20.02;10.00;;;1.80;99.90;;;;;;5088037;28;20054;-67
2022/02/01 04:46:38;;;;;;;21.60;10.90;;;1.80;99.90;;;;;;5103103;28;20913;-66
2022/02/01 04:49:09;;;;;;;23.77;11.20;;;1.80;99.90;;;;;;5086011;28;20864;-67
2022/02/01 04:51:36;;;;;;;20.67;9.95;;;1.80;99.90;;;;;;5109887;28;20055;-66
2022/02/01 04:54:05;;;;;;;20.27;11.05;;;1.80;99.90;;;;;;5109877;28;20115;-68
2022/02/01 04:56:32;;;;;;;24.08;10.60;;;1.80;99.90;;;;;;5111341;28;20089;-67
2022/02/01 04:58:59;;;;;;;21.05;9.48;;;1.70;99.90;;;;;;5110967;28;20471;-65
2022/02/01 05:01:37;;;;;;;21.60;10.30;;;1.70;99.90;;;;;;5111560;28;20048;-66
2022/02/01 05:04:06;;;;;;;21.98;10.68;;;1.70;99.90;;;;;;5093818;28;20051;-68
2022/02/01 05:06:35;;;;;;;19.58;9.85;;;1.70;99.90;;;;;;5111549;28;20062;-67
2022/02/01 05:09:03;;;;;;;25.58;11.00;;;1.70;99.90;;;;;;5092849;28;20444;-66
2022/02/01 05:11:30;;;;;;;20.23;10.57;;;1.70;99.90;;;;;;5110180;28;20050;-66
2022/02/01 05:16:59;;;;;;;25.35;11.68;;;1.60;99.90;;;;;;5098654;28;20044;-67
2022/02/01 05:22:02;;;;;;;21.30;10.23;;;1.70;99.90;;;;;;5104607;28;20077;-68
2022/02/01 05:24:31;;;;;;;22.45;11.02;;;1.70;99.90;;;;;;5108441;28;20046;-66
2022/02/01 05:27:01;;;;;;;21.35;10.60;;;1.70;99.90;;;;;;5109063;28;20418;-65
2022/02/01 05:29:28;;;;;;;24.40;11.38;;;1.60;99.90;;;;;;5108430;28;20035;-66
2022/02/01 05:31:58;;;;;;;22.45;11.68;;;1.60;99.90;;;;;;5091161;28;20475;-68
2022/02/01 05:34:25;;;;;;;22.40;11.52;;;1.50;99.90;;;;;;5110817;28;20050;-66
2022/02/01 05:36:52;;;;;;;24.40;11.43;;;1.50;99.90;;;;;;5110043;28;20566;-67
2022/02/01 05:39:24;;;;;;;22.27;10.80;;;1.50;99.90;;;;;;5109531;28;20036;-66
2022/02/01 05:41:54;;;;;;;22.48;10.40;;;1.40;99.90;;;;;;5084646;28;20047;-68
2022/02/01 05:44:21;;;;;;;25.17;10.05;;;1.40;99.90;;;;;;5099587;28;20083;-66
2022/02/01 05:46:49;;;;;;;24.52;10.45;;;1.40;99.90;;;;;;5085448;28;20134;-66
2022/02/01 05:49:18;;;;;;;20.85;10.23;;;1.40;99.90;;;;;;5103129;28;20048;-66
2022/02/01 05:51:49;;;;;;;18.85;9.13;;;1.40;99.90;;;;;;5109895;28;20047;-66
2022/02/01 05:54:18;;;;;;;21.88;10.13;;;1.40;99.90;;;;;;5107628;28;20439;-66
2022/02/01 05:56:45;;;;;;;19.52;9.35;;;1.40;99.90;;;;;;5109375;28;20070;-66
2022/02/01 05:59:12;;;;;;;20.65;10.25;;;1.40;99.90;;;;;;5103703;28;20040;-65
2022/02/01 06:01:39;;;;;;;19.92;9.00;;;1.40;99.90;;;;;;5076194;28;20156;-64
2022/02/01 06:04:07;;;;;;;18.95;9.02;;;1.40;99.90;;;;;;5102304;28;20044;-66
2022/02/01 06:06:34;;;;;;;18.65;8.80;;;1.50;99.90;;;;;;5102497;28;20051;-69
2022/02/01 06:09:01;;;;;;;17.27;7.93;;;1.50;99.90;;;;;;5109550;28;20130;-68
2022/02/01 06:11:29;;;;;;;16.40;8.55;;;1.60;99.90;;;;;;5109137;28;20142;-63
2022/02/01 06:13:56;;;;;;;21.48;7.85;;;1.70;99.90;;;;;;5110507;28;20046;-67
2022/02/01 06:16:24;;;;;;;17.20;7.82;;;1.70;99.90;;;;;;5102264;28;20043;-66
2022/02/01 06:18:52;;;;;;;18.02;7.03;;;1.70;99.90;;;;;;5103127;28;20135;-67
2022/02/01 06:21:19;;;;;;;21.05;7.80;;;1.80;99.90;;;;;;5109974;28;20406;-67
2022/02/01 06:23:46;;;;;;;18.65;6.75;;;1.90;99.90;;;;;;5111705;28;20223;-67
2022/02/01 06:26:16;;;;;;;13.50;6.32;;;1.90;99.90;;;;;;5110408;28;20039;-66
2022/02/01 06:28:44;;;;;;;18.85;6.63;;;1.90;99.90;;;;;;5110191;28;20074;-66
2022/02/01 06:31:11;;;;;;;15.15;6.03;;;2.00;99.90;;;;;;5108686;28;20460;-64
2022/02/01 06:33:38;;;;;;;15.30;6.55;;;2.00;99.90;;;;;;5099200;28;20036;-67
2022/02/01 06:36:06;;;;;;;18.85;6.47;;;2.00;99.90;;;;;;5103433;28;20163;-65
2022/02/01 06:38:33;;;;;;;13.07;5.05;;;2.00;99.90;;;;;;5090164;28;20048;-67
2022/02/01 06:41:00;;;;;;;14.15;5.43;;;2.00;99.90;;;;;;5109251;28;20066;-67
2022/02/01 06:43:27;;;;;;;22.23;6.15;;;2.00;99.90;;;;;;5091196;28;20040;-67
2022/02/01 06:45:58;;;;;;;14.57;5.03;;;2.10;99.90;;;;;;5092053;28;20166;-66
2022/02/01 06:48:26;;;;;;;17.48;4.82;;;2.10;99.90;;;;;;5108980;28;20039;-64
2022/02/01 06:50:53;;;;;;;17.92;5.45;;;2.10;99.90;;;;;;5109631;28;20059;-67
2022/02/01 06:53:21;;;;;;;16.23;4.68;;;2.10;99.90;;;;;;5103206;28;20040;-65
2022/02/01 06:56:05;;;;;;;17.48;4.63;;;2.10;99.90;;;;;;5096440;28;20043;-67
2022/02/01 06:58:32;;;;;;;14.00;4.60;;;2.20;99.90;;;;;;5094038;28;20028;-67
2022/02/01 07:00:59;;;;;;;18.65;4.00;;;2.10;99.90;;;;;;5076644;28;20044;-67
2022/02/01 07:03:27;;;;;;;17.30;4.82;;;2.10;99.90;;;;;;5091118;28;20040;-67
2022/02/01 07:05:55;;;;;;;21.15;5.40;;;2.20;99.90;;;;;;5074010;28;20044;-66
2022/02/01 07:08:23;;;;;;;14.80;4.07;;;2.20;99.90;;;;;;5090591;28;20036;-66
2022/02/01 07:35:53;;;;;;;18.27;5.05;;;2.10;99.90;;;;;;5095325;28;20119;-65
2022/02/01 07:38:23;;;;;;;27.55;5.13;;;2.10;99.90;;;;;;5075456;28;20460;-67
2022/02/01 07:40:52;;;;;;;21.60;4.47;;;2.00;99.90;;;;;;5088499;28;20044;-68
2022/02/01 07:43:22;;;;;;;22.30;4.55;;;2.00;99.90;;;;;;5073076;28;20044;-66
2022/02/01 07:45:50;;;;;;;22.98;4.20;;;2.10;99.90;;;;;;5080969;28;20513;-66
2022/02/01 07:48:18;;;;;;;21.60;4.93;;;2.10;99.90;;;;;;5086157;28;20488;-68
2022/02/01 07:50:45;;;;;;;22.52;4.05;;;2.10;99.90;;;;;;5088174;28;20502;-67
2022/02/01 07:53:13;;;;;;;23.98;4.28;;;2.10;99.90;;;;;;5086895;28;20039;-66
2022/02/01 07:55:40;;;;;;;15.82;3.78;;;2.00;99.90;;;;;;5082820;28;20044;-67
2022/02/01 07:58:08;;;;;;;22.73;3.90;;;2.10;99.90;;;;;;5072993;28;20036;-67
2022/02/01 08:00:35;;;;;;;17.60;4.50;;;2.10;99.90;;;;;;5106145;28;20043;-67
2022/02/01 08:03:02;;;;;;;19.92;4.40;;;2.10;99.90;;;;;;5081203;28;20048;-68
2022/02/01 08:05:32;;;;;;;17.95;4.22;;;2.10;99.90;;;;;;5054815;28;20052;-68
2022/02/01 08:08:06;;;;;;;20.58;3.72;;;2.20;99.90;;;;;;5083260;28;20075;-67
2022/02/01 08:10:42;;;;;;;19.23;3.67;;;2.20;99.90;;;;;;5086411;28;20055;-69
2022/02/01 08:13:57;;;;;;;16.20;4.43;;;2.20;99.90;;;;;;5067304;28;20052;-68
2022/02/01 08:19:16;;;;;;;21.23;4.10;;;2.10;99.90;;;;;;5090048;28;20053;-66
2022/02/01 08:21:44;;;;;;;21.88;5.00;;;2.20;99.90;;;;;;5107135;28;20059;-67
2022/02/01 08:24:11;;;;;;;22.63;4.15;;;2.20;99.90;;;;;;5092140;28;20059;-67
2022/02/01 08:26:39;;;;;;;22.45;4.95;;;2.20;99.90;;;;;;5112449;28;20067;-67
2022/02/01 08:29:08;;;;;;;28.58;5.10;;;2.20;99.90;;;;;;5110784;28;20058;-68
2022/02/01 08:31:44;;;;;;;16.27;5.00;;;2.10;99.90;;;;;;5076084;28;20047;-69
2022/02/01 08:34:12;;;;;;;21.73;5.00;;;2.10;99.90;;;;;;5113909;28;20100;-67
2022/02/01 08:36:39;;;;;;;24.25;4.57;;;2.20;99.90;;;;;;5093727;28;20563;-66
2022/02/01 08:39:07;;;;;;;27.27;5.45;;;2.20;99.90;;;;;;5112734;28;20082;-65
2022/02/01 08:41:35;;;;;;;25.25;5.07;;;2.20;99.90;;;;;;5112700;28;20044;-64
2022/02/01 08:44:03;;;;;;;17.45;5.13;;;2.30;99.90;;;;;;5112241;28;20431;-66
2022/02/01 08:46:31;;;;;;;21.38;4.75;;;2.30;99.90;;;;;;5114063;28;20062;-64
2022/02/01 08:48:58;;;;;;;27.20;5.57;;;2.30;99.90;;;;;;5114002;28;20043;-64
2022/02/01 08:51:27;;;;;;;23.55;4.90;;;2.30;99.90;;;;;;5112878;28;20059;-66
2022/02/01 08:53:58;;;;;;;21.95;5.45;;;2.30;99.90;;;;;;5113226;28;20039;-66
2022/02/01 08:59:28;;;;;;;;;;;2.30;99.90;;;;;;5113810;28;20451;-67
2022/02/01 09:01:56;;;;;;;19.83;5.50;;;2.30;99.90;;;;;;5097624;28;20389;-66
2022/02/01 09:04:24;;;;;;;24.02;5.60;;;2.40;99.90;;;;;;5113387;28;20585;-64
2022/02/01 09:06:52;;;;;;;22.00;5.35;;;2.40;99.90;;;;;;5111403;28;20074;-64
2022/02/01 09:09:20;;;;;;;15.35;5.25;;;2.40;99.90;;;;;;5111164;28;20079;-67
2022/02/01 09:11:48;;;;;;;23.98;5.72;;;2.40;99.90;;;;;;5111947;28;20138;-65
2022/02/01 09:14:17;;;;;;;27.58;6.25;;;2.40;99.90;;;;;;5108355;28;20047;-67
2022/02/01 09:16:44;;;;;;;21.08;5.28;;;2.50;99.90;;;;;;5111316;28;20044;-67
2022/02/01 09:19:12;;;;;;;24.42;6.00;;;2.50;99.90;;;;;;5095525;28;20052;-65
2022/02/01 09:21:39;;;;;;;25.50;5.45;;;2.50;99.90;;;;;;5111727;28;20045;-67
2022/02/01 09:24:07;;;;;;;22.42;5.60;;;2.50;99.90;;;;;;5112019;28;20442;-68
2022/02/01 09:26:34;;;;;;;15.30;5.15;;;2.50;99.90;;;;;;5103385;28;20573;-66
2022/02/01 09:29:19;;;;;;;20.58;5.05;;;2.50;99.90;;;;;;5090782;28;20428;-66
2022/02/01 09:31:50;;;;;;;18.42;5.40;;;2.60;99.90;;;;;;5097857;28;20566;-65
2022/02/01 09:34:18;;;;;;;19.17;5.40;;;2.70;99.90;;;;;;5092488;28;20047;-64
2022/02/01 09:36:49;;;;;;;19.00;5.30;;;2.90;99.90;;;;;;5093974;28;20128;-65
2022/02/01 09:39:20;;;;;;;21.50;4.82;;;2.90;99.90;;;;;;5077862;28;20568;-66
2022/02/01 09:41:48;;;;;;;21.42;4.45;;;3.00;99.90;;;;;;5088733;28;20380;-68
2022/02/01 09:44:19;;;;;;;17.85;4.35;;;3.00;99.90;;;;;;5056496;28;20054;-67
2022/02/01 09:46:49;;;;;;;17.08;4.55;;;3.00;99.90;;;;;;5088643;28;20422;-65
2022/02/01 09:49:25;;;;;;;17.90;4.07;;;3.20;99.90;;;;;;5090167;28;20052;-66
2022/02/01 09:51:57;;;;;;;18.67;3.97;;;3.20;99.90;;;;;;5089815;27;20119;-66
2022/02/01 09:54:28;;;;;;;22.77;5.40;;;3.20;99.90;;;;;;5088374;28;20044;-63
2022/02/01 09:57:01;;;;;;;14.25;4.30;;;3.10;99.90;;;;;;5085980;28;20495;-67
2022/02/01 09:59:33;;;;;;;15.45;4.57;;;3.10;99.90;;;;;;5087865;28;20675;-66
2022/02/01 10:02:09;;;;;;;13.48;3.70;;;3.10;99.90;;;;;;5068863;28;20080;-67
2022/02/01 10:04:37;;;;;;;16.63;3.50;;;3.10;99.90;;;;;;5087541;28;20063;-66
2022/02/01 10:07:13;;;;;;;20.05;4.13;;;3.10;99.90;;;;;;5085502;28;20536;-66
2022/02/01 10:10:07;;;;;;;20.85;4.68;;;3.10;99.90;;;;;;5091136;28;20056;-67
2022/02/01 10:12:36;;;;;;;17.25;4.38;;;3.20;99.90;;;;;;5106072;28;20055;-67
2022/02/01 10:15:08;;;;;;;22.35;4.25;;;3.50;99.90;;;;;;5074995;28;20063;-67
2022/02/01 10:17:49;;;;;;;16.08;3.83;;;3.50;99.90;;;;;;5109921;28;20075;-66
2022/02/01 10:20:18;;;;;;;12.23;3.97;;;3.60;99.90;;;;;;5109409;28;20031;-67
2022/02/01 10:22:45;;;;;;;18.88;3.08;;;3.50;99.90;;;;;;5091081;28;20082;-64
2022/02/01 10:25:29;;;;;;;20.13;3.47;;;3.50;99.90;;;;;;5108846;28;20043;-65
2022/02/01 10:27:59;;;;;;;17.20;3.80;;;3.60;99.90;;;;;;5091783;28;20047;-66
2022/02/01 10:30:48;;;;;;;21.38;2.92;;;3.60;99.90;;;;;;5089934;28;20508;-67
2022/02/01 10:33:54;;;;;;;13.43;3.38;;;3.60;99.90;;;;;;5109201;28;20043;-66
2022/02/01 10:36:19;;;;;;;13.13;2.92;;;3.70;99.90;;;;;;5110158;28;20059;-66
2022/02/01 10:38:49;;;;;;;11.80;2.55;;;3.70;99.90;;;;;;5109820;28;20047;-66
2022/02/01 10:41:17;;;;;;;14.50;3.25;;;3.70;99.90;;;;;;5104594;28;20301;-67
2022/02/01 10:43:50;;;;;;;19.08;3.38;;;3.70;99.90;;;;;;5110065;28;20340;-68
2022/02/01 10:46:18;;;;;;;14.32;3.30;;;3.70;99.90;;;;;;5108302;28;20051;-66
2022/02/01 10:48:48;;;;;;;19.38;3.50;;;3.80;99.90;;;;;;5105450;28;20048;-67
2022/02/01 10:51:17;;;;;;;13.90;2.40;;;3.90;99.90;;;;;;5109082;28;20070;-67
2022/02/01 10:53:45;;;;;;;12.40;3.00;;;3.90;99.90;;;;;;5110151;28;20050;-66
2022/02/01 10:56:16;;;;;;;16.33;3.15;;;3.90;99.90;;;;;;5111196;28;20505;-66
2022/02/01 10:58:45;;;;;;;13.00;3.10;;;4.00;99.90;;;;;;5109223;28;20039;-66
2022/02/01 11:01:13;;;;;;;11.55;3.40;;;4.00;99.90;;;;;;5099785;28;20036;-66
2022/02/01 11:03:43;;;;;;;16.65;3.42;;;3.90;99.90;;;;;;5109327;28;20476;-66
2022/02/01 11:06:12;;;;;;;15.40;3.58;;;3.90;99.90;;;;;;5100022;28;20130;-65
2022/02/01 11:08:41;;;;;;;14.90;3.00;;;3.70;99.90;;;;;;5101932;28;20533;-67
2022/02/01 11:11:18;;;;;;;20.30;3.05;;;3.70;99.90;;;;;;5105354;28;20043;-65
2022/02/01 11:13:49;;;;;;;15.07;2.95;;;3.70;99.90;;;;;;5095830;28;20043;-66
2022/02/01 11:16:23;;;;;;;14.45;3.25;;;3.60;99.90;;;;;;5105917;28;20089;-67
2022/02/01 11:19:02;;;;;;;16.17;3.10;;;3.50;99.90;;;;;;5109991;28;20135;-67
2022/02/01 11:21:30;;;;;;;13.00;3.20;;;3.40;99.90;;;;;;5110059;28;20609;-67
2022/02/01 11:24:05;;;;;;;9.07;2.92;;;3.40;99.90;;;;;;5110086;28;20051;-67
2022/02/01 11:26:37;;;;;;;9.55;3.05;;;3.40;99.90;;;;;;5109906;28;20135;-67
2022/02/01 11:32:03;;;;;;;12.63;3.20;;;3.50;99.90;;;;;;5070170;28;20052;-66
2022/02/01 11:35:01;;;;;;;14.95;3.30;;;3.60;99.90;;;;;;5109373;28;20048;-66
2022/02/01 11:37:29;;;;;;;12.43;3.40;;;3.60;99.90;;;;;;5101431;28;20574;-68
2022/02/01 11:39:57;;;;;;;12.30;3.47;;;3.70;99.90;;;;;;5087521;28;20138;-67
2022/02/01 11:42:33;;;;;;;14.52;3.33;;;3.90;99.90;;;;;;5088738;28;20059;-67
2022/02/01 11:45:04;;;;;;;10.57;3.45;;;4.00;99.90;;;;;;5078951;28;20143;-66
2022/02/01 11:47:34;;;;;;;15.50;3.30;;;4.20;99.90;;;;;;5091748;28;20865;-66
2022/02/01 11:50:15;;;;;;;8.07;2.80;;;4.20;99.90;;;;;;5091000;28;20043;-65
2022/02/01 11:52:52;;;;;;;11.63;3.47;;;4.00;99.90;;;;;;5090646;28;20585;-68
2022/02/01 11:55:24;;;;;;;13.38;3.22;;;4.10;99.90;;;;;;5088014;28;20317;-68
2022/02/01 11:58:01;;;;;;;12.50;3.60;;;4.10;99.90;;;;;;5072274;28;20474;-66
2022/02/01 12:00:31;;;;;;;14.25;3.53;;;4.00;99.90;;;;;;5089023;28;20048;-67
2022/02/01 12:03:02;;;;;;;13.45;3.40;;;4.00;99.90;;;;;;5089993;28;20040;-65
2022/02/01 12:05:30;;;;;;;12.45;3.63;;;3.90;99.90;;;;;;5088361;28;20052;-67
2022/02/01 12:08:06;;;;;;;12.73;3.65;;;3.80;99.90;;;;;;5088741;28;20239;-65
2022/02/01 12:10:39;;;;;;;12.13;3.60;;;3.80;99.90;;;;;;5089877;28;20398;-68
2022/02/01 12:13:08;;;;;;;10.05;3.10;;;3.70;99.90;;;;;;5095171;28;20043;-65
2022/02/01 12:15:37;;;;;;;11.65;3.33;;;3.70;99.90;;;;;;5106640;28;20909;-64
2022/02/01 12:18:09;;;;;;;9.05;2.70;;;3.60;99.90;;;;;;5105833;28;20056;-66
2022/02/01 12:20:38;;;;;;;12.45;3.15;;;3.50;99.90;;;;;;5107992;28;20066;-67
2022/02/01 12:23:24;;;;;;;15.10;3.50;;;3.40;99.90;;;;;;5108583;28;20390;-67
2022/02/01 12:25:52;;;;;;;11.23;3.80;;;3.40;99.90;;;;;;5100913;28;20055;-67
2022/02/01 12:28:22;;;;;;;10.73;3.38;;;3.40;99.90;;;;;;5107770;28;20036;-67
2022/02/01 12:30:51;;;;;;;10.70;3.20;;;3.40;99.90;;;;;;5103574;28;20043;-67
2022/02/01 12:33:24;;;;;;;16.33;4.43;;;3.50;99.90;;;;;;5090885;28;20094;-67
2022/02/01 12:35:53;;;;;;;15.70;3.65;;;3.50;99.90;;;;;;5084365;28;20047;-67
2022/02/01 12:38:24;;;;;;;12.70;4.35;;;3.50;99.90;;;;;;5108522;28;20456;-67
2022/02/01 12:41:11;;;;;;;9.80;3.28;;;3.50;99.90;;;;;;5072390;28;20478;-66
2022/02/01 12:46:43;;;;;;;15.68;3.47;;;3.50;99.90;;;;;;5089039;28;20059;-66
2022/02/01 12:49:36;;;;;;;11.77;3.45;;;3.50;99.90;;;;;;5089892;28;20476;-67
2022/02/01 12:52:06;;;;;;;13.07;4.10;;;3.50;99.90;;;;;;5098970;28;20051;-68
2022/02/01 12:54:38;;;;;;;11.00;3.20;;;3.40;99.90;;;;;;5104717;28;20048;-69
2022/02/01 12:57:17;;;;;;;8.90;3.38;;;3.40;99.90;;;;;;5108893;28;20699;-67
2022/02/01 12:59:56;;;;;;;10.25;3.78;;;3.40;99.90;;;;;;5073315;28;20051;-67
2022/02/01 13:02:29;;;;;;;10.82;3.70;;;3.30;99.90;;;;;;5087816;28;20139;-66
2022/02/01 13:05:00;;;;;;;16.15;3.63;;;3.30;99.90;;;;;;5071287;28;20072;-65
2022/02/01 13:21:28;;;;;;;15.15;3.83;;;3.10;99.90;;;;;;5091738;28;20052;-65
2022/02/01 13:23:59;;;;;;;11.32;3.65;;;3.00;99.90;;;;;;5054689;28;20047;-65
2022/02/01 13:26:30;;;;;;;12.50;3.92;;;2.90;99.90;;;;;;5091865;28;20046;-64
2022/02/01 13:29:11;;;;;;;9.32;3.75;;;2.90;99.90;;;;;;5073658;28;21401;-66
2022/02/01 13:31:47;;;;;;;12.68;3.63;;;2.90;99.90;;;;;;5091983;28;20074;-68
2022/02/01 13:34:22;;;;;;;10.75;3.70;;;2.90;99.90;;;;;;5071332;28;20043;-68
2022/02/01 13:36:56;;;;;;;10.07;3.10;;;3.00;99.90;;;;;;5096729;28;20070;-68
2022/02/01 13:39:37;;;;;;;9.63;3.13;;;3.00;99.90;;;;;;5074388;28;20069;-68
2022/02/01 13:42:10;;;;;;;13.77;3.70;;;2.90;99.90;;;;;;5100128;28;20146;-68
2022/02/01 13:45:00;;;;;;;10.50;3.45;;;2.90;99.90;;;;;;5109020;28;20290;-68
2022/02/01 13:47:42;;;;;;;10.93;3.40;;;2.80;99.90;;;;;;5110293;28;20059;-68
2022/02/01 13:50:21;;;;;;;10.52;3.80;;;2.70;99.90;;;;;;5110875;28;20107;-65
2022/02/01 13:53:00;;;;;;;11.15;3.05;;;2.70;99.90;;;;;;5109621;28;20044;-66
2022/02/01 13:55:30;;;;;;;11.65;3.55;;;2.60;99.90;;;;;;5089112;28;20043;-68
2022/02/01 13:58:08;;;;;;;11.27;2.80;;;2.50;99.90;;;;;;5090172;28;20059;-67
2022/02/01 14:00:42;;;;;;;11.52;2.95;;;2.50;99.90;;;;;;5090702;28;20044;-67
2022/02/01 14:03:42;;;;;;;8.82;3.65;;;2.60;99.90;;;;;;5090967;28;20044;-67
2022/02/01 14:09:40;;;;;;;10.20;3.17;;;2.60;99.90;;;;;;5028736;28;20131;-67
2022/02/01 14:34:38;;;;;;;8.98;2.55;;;2.50;99.90;;;;;;4968584;28;20052;-67
2022/02/01 14:37:13;;;;;;;10.43;2.60;;;2.40;99.90;;;;;;4977474;28;20050;-66
2022/02/01 14:45:18;;;;;;;6.88;2.83;;;2.20;99.90;;;;;;4998162;28;20117;-66
2022/02/01 14:47:45;;;;;;;9.23;2.40;;;2.20;99.90;;;;;;5006297;28;20065;-66
2022/02/01 14:50:12;;;;;;;7.25;2.55;;;2.20;99.90;;;;;;5075848;28;20066;-68
2022/02/01 14:52:40;;;;;;;5.47;2.33;;;2.10;99.90;;;;;;5105684;28;20552;-67
2022/02/01 14:55:13;;;;;;;5.93;2.13;;;2.20;99.90;;;;;;5102073;28;20417;-68
2022/02/01 15:12:03;;;;;;;9.68;2.83;;;1.90;99.90;;;;;;5100796;28;20506;-68
2022/02/01 15:14:21;;;;;;;7.78;2.22;;;2.00;99.90;;;;;;5095567;28;20050;-66
2022/02/01 15:16:48;;;;;;;8.65;2.63;;;2.00;99.90;;;;;;5105283;27;20059;-67
2022/02/01 15:19:16;;;;;;;6.78;2.13;;;1.90;99.90;;;;;;5103275;28;20043;-65
2022/02/01 15:21:43;;;;;;;4.88;2.40;;;1.80;99.90;;;;;;5109617;28;20048;-67
2022/02/01 15:24:30;;;;;;;4.22;2.17;;;1.80;99.90;;;;;;5100958;28;20047;-68
2022/02/01 15:26:57;;;;;;;6.25;2.47;;;1.80;99.90;;;;;;5102113;28;20048;-67
2022/02/01 15:29:25;;;;;;;4.82;2.45;;;1.80;99.90;;;;;;5104087;28;20039;-67
2022/02/01 15:31:52;;;;;;;26.23;3.88;;;1.70;99.90;;;;;;5098444;28;20496;-69
2022/02/01 15:34:19;;;;;;;6.20;2.80;;;1.80;99.90;;;;;;5105633;27;20131;-69
2022/02/01 15:36:47;;;;;;;8.35;3.38;;;1.80;99.90;;;;;;5109391;28;20036;-66
2022/02/01 15:58:45;;;;;;;8.48;2.70;;;1.70;99.90;;;;;;5087374;28;20482;-67
2022/02/01 16:01:19;;;;;;;7.97;2.88;;;1.70;99.90;;;;;;5087252;28;20621;-65
2022/02/01 16:03:48;;;;;;;5.45;2.63;;;1.70;99.90;;;;;;5087418;28;20051;-68
2022/02/01 16:06:15;;;;;;;8.07;2.95;;;1.60;99.90;;;;;;5085959;28;20868;-68
2022/02/01 16:08:45;;;;;;;6.10;2.72;;;1.60;99.90;;;;;;5068663;28;20055;-68
2022/02/01 16:11:14;;;;;;;4.97;2.42;;;1.60;99.90;;;;;;5087101;28;20059;-67
2022/02/01 16:13:49;;;;;;;4.80;2.53;;;1.60;99.90;;;;;;5085988;28;20047;-67
2022/02/01 16:16:17;;;;;;;7.70;2.80;;;1.60;99.90;;;;;;5093757;28;20083;-69
2022/02/01 16:18:45;;;;;;;5.75;2.42;;;1.70;99.90;;;;;;5101831;28;20796;-69
2022/02/01 16:21:13;;;;;;;5.10;2.38;;;1.70;99.90;;;;;;5108158;28;20100;-69
2022/02/01 16:23:57;;;;;;;8.90;2.80;;;1.60;99.90;;;;;;5108208;28;20062;-68
2022/02/01 16:26:25;;;;;;;7.93;3.92;;;1.60;99.90;;;;;;5108587;28;20039;-67